Time;durP1;ratioP1;P1;durP2;ratioP2;P2;SDS_P1;SDS_P2;PMS_P1;PMS_P2;Temp;Humidity;BMP_temperature;BMP_pressure;BME280_temperature;BME280_humidity;BME280_pressure;Samples;Min_cycle;Max_cycle;Signal;HPM_P1;HPM_P2
2023/10/04 00:00:15;;;;;;;3.92;1.40;;;;;;;12.72;90.37;102384.16;4940449;29;20479;-79
2023/10/04 00:02:45;;;;;;;4.20;1.30;;;;;;;12.70;90.59;102376.34;4953952;28;20027;-79
2023/10/04 00:05:15;;;;;;;3.25;1.30;;;;;;;12.69;90.60;102384.16;4949559;28;20027;-79
2023/10/04 00:07:44;;;;;;;6.22;1.38;;;;;;;12.67;90.85;102391.16;4950937;28;20023;-79
2023/10/04 00:10:10;;;;;;;4.55;1.30;;;;;;;12.63;90.92;102392.09;4943960;29;20035;-79
2023/10/04 00:12:36;;;;;;;6.28;1.23;;;;;;;12.62;91.03;102399.03;4946113;29;20027;-79
2023/10/04 00:15:04;;;;;;;4.75;1.20;;;;;;;12.62;91.21;102408.63;4949747;28;20035;-79
2023/10/04 00:17:29;;;;;;;2.53;1.20;;;;;;;12.60;91.04;102406.00;4944265;29;20035;-79
2023/10/04 00:19:55;;;;;;;6.95;1.45;;;;;;;12.60;91.15;102400.78;4954573;28;20039;-79
2023/10/04 00:22:23;;;;;;;5.43;1.60;;;;;;;12.60;90.98;102400.78;4943666;29;20030;-79
2023/10/04 00:24:51;;;;;;;3.67;1.20;;;;;;;12.60;91.15;102401.66;4939695;29;20095;-79
2023/10/04 00:27:17;;;;;;;4.55;1.30;;;;;;;12.60;91.00;102401.66;4950640;28;20364;-79
2023/10/04 00:29:44;;;;;;;3.58;1.30;;;;;;;12.60;90.98;102411.22;4952406;28;20038;-78
2023/10/04 00:32:09;;;;;;;4.32;1.10;;;;;;;12.61;91.24;102399.91;4938438;28;20078;-78
2023/10/04 00:34:34;;;;;;;5.70;1.40;;;;;;;12.60;91.19;102412.13;4952762;29;20047;-78
2023/10/04 00:36:59;;;;;;;3.00;1.15;;;;;;;12.58;91.31;102407.75;4950087;29;20023;-79
2023/10/04 00:39:25;;;;;;;4.93;1.27;;;;;;;12.56;91.40;102410.41;4951738;29;20115;-79
2023/10/04 00:41:53;;;;;;;5.05;1.48;;;;;;;12.56;91.47;102405.19;4943805;29;20031;-79
2023/10/04 00:44:19;;;;;;;3.45;1.25;;;;;;;12.55;91.63;102405.22;4943713;29;20550;-79
2023/10/04 00:46:45;;;;;;;5.40;1.42;;;;;;;12.54;91.47;102400.88;4945673;28;20110;-79
2023/10/04 00:49:12;;;;;;;5.68;1.60;;;;;;;12.51;91.61;102401.72;4967216;28;20031;-79
2023/10/04 00:51:38;;;;;;;5.80;1.40;;;;;;;12.52;91.64;102410.44;4943833;28;20039;-79
2023/10/04 00:54:08;;;;;;;6.35;1.58;;;;;;;12.49;91.73;102408.72;4946674;28;20032;-79
2023/10/04 00:56:36;;;;;;;3.10;1.30;;;;;;;12.49;91.92;102418.31;4944869;29;20054;-79
2023/10/04 00:59:04;;;;;;;4.78;1.15;;;;;;;12.49;91.70;102406.09;4949950;28;20055;-79
2023/10/04 01:01:31;;;;;;;5.80;1.40;;;;;;;12.48;91.99;102417.41;4948005;29;20110;-79
2023/10/04 01:03:59;;;;;;;6.45;1.50;;;;;;;12.48;91.98;102417.41;4951047;28;20019;-79
2023/10/04 01:06:24;;;;;;;4.80;1.40;;;;;;;12.49;92.17;102423.53;4949548;28;20360;-79
2023/10/04 01:08:50;;;;;;;4.55;1.35;;;;;;;12.48;91.77;102420.03;4952482;29;20074;-79
2023/10/04 01:11:15;;;;;;;2.72;1.23;;;;;;;12.48;92.28;102412.19;4948792;28;20110;-80
2023/10/04 01:13:40;;;;;;;4.20;1.25;;;;;;;12.50;91.66;102422.66;4945766;29;20042;-79
2023/10/04 01:16:09;;;;;;;4.63;1.30;;;;;;;12.50;92.24;102420.88;4946054;29;20046;-79
2023/10/04 01:18:35;;;;;;;5.60;1.20;;;;;;;12.49;92.24;102426.97;4946464;29;20051;-79
2023/10/04 01:21:01;;;;;;;5.00;1.42;;;;;;;12.49;92.26;102428.75;4946711;28;20027;-79
2023/10/04 01:23:27;;;;;;;5.32;1.30;;;;;;;12.48;92.21;102427.84;4938794;28;20063;-79
2023/10/04 01:25:53;;;;;;;3.83;1.40;;;;;;;12.48;92.45;102427.84;4950523;29;20023;-79
2023/10/04 01:28:26;;;;;;;2.25;1.02;;;;;;;12.49;92.25;102428.75;4946809;28;20024;-79
2023/10/04 01:30:53;;;;;;;3.83;1.40;;;;;;;12.49;92.42;102436.56;4946706;28;20079;-79
2023/10/04 01:33:18;;;;;;;3.75;1.33;;;;;;;12.48;92.38;102437.44;4950061;28;20023;-79
2023/10/04 01:35:46;;;;;;;6.30;1.60;;;;;;;12.49;92.62;102440.03;4945263;29;20107;-79
2023/10/04 01:38:12;;;;;;;4.03;1.73;;;;;;;12.48;92.74;102440.91;4946256;28;20042;-79
2023/10/04 01:40:39;;;;;;;3.83;1.38;;;;;;;12.47;92.81;102441.78;4942013;28;20455;-79
2023/10/04 01:43:15;;;;;;;4.68;1.52;;;;;;;12.47;92.75;102441.78;4942110;29;20042;-79
2023/10/04 01:45:43;;;;;;;7.85;1.58;;;;;;;12.47;92.71;102436.56;4943436;29;20074;-79
2023/10/04 01:48:08;;;;;;;5.30;1.55;;;;;;;12.48;92.77;102442.66;4948854;29;20398;-79
2023/10/04 01:50:34;;;;;;;5.13;1.40;;;;;;;12.48;92.62;102432.22;4940234;29;20102;-79
2023/10/04 01:53:00;;;;;;;7.50;1.60;;;;;;;12.48;92.84;102442.66;4947389;29;20036;-79
2023/10/04 01:55:26;;;;;;;5.28;1.70;;;;;;;12.47;92.63;102443.53;4952382;29;20038;-79
2023/10/04 01:57:52;;;;;;;4.63;1.38;;;;;;;12.47;92.64;102441.78;4951547;29;20036;-79
2023/10/04 02:00:18;;;;;;;4.85;1.35;;;;;;;12.46;92.85;102442.69;4951274;29;20051;-79
2023/10/04 02:02:45;;;;;;;7.00;1.67;;;;;;;12.47;93.09;102438.31;4949737;28;20032;-79
2023/10/04 02:05:15;;;;;;;4.80;1.35;;;;;;;12.46;93.07;102437.47;4950782;29;20031;-79
2023/10/04 02:07:40;;;;;;;5.72;1.35;;;;;;;12.46;92.78;102432.25;4949563;29;20035;-79
2023/10/04 02:10:09;;;;;;;7.28;1.50;;;;;;;12.46;92.83;102429.66;4950365;28;20035;-79
2023/10/04 02:12:34;;;;;;;6.72;1.48;;;;;;;12.48;92.73;102433.06;4940658;29;20032;-79
2023/10/04 02:14:59;;;;;;;7.13;1.60;;;;;;;12.48;92.92;102427.00;4950535;29;20034;-79
2023/10/04 02:17:25;;;;;;;6.22;1.33;;;;;;;12.49;92.92;102429.59;4942171;29;20543;-79
2023/10/04 02:19:53;;;;;;;8.65;1.58;;;;;;;12.50;92.74;102430.47;4945840;29;20027;-80
2023/10/04 02:22:19;;;;;;;8.95;1.80;;;;;;;12.50;92.74;102436.53;4945941;29;20391;-80
2023/10/04 02:24:44;;;;;;;6.95;1.63;;;;;;;12.49;92.73;102431.34;4948685;28;20035;-80
2023/10/04 02:27:11;;;;;;;7.18;1.27;;;;;;;12.49;92.97;102429.59;4955965;29;20066;-79
2023/10/04 02:29:39;;;;;;;7.03;1.27;;;;;;;12.50;92.66;102427.88;4951871;28;20051;-80
2023/10/04 02:32:11;;;;;;;5.90;1.45;;;;;;;12.48;92.68;102422.63;4955779;28;20494;-80
2023/10/04 02:34:38;;;;;;;;;;;;;;;12.52;91.73;102419.13;4955653;28;20081;-79
2023/10/04 02:37:09;;;;;;;7.63;1.30;;;;;;;12.50;92.45;102426.09;4952825;29;19914;-79
2023/10/04 02:39:38;;;;;;;6.05;1.30;;;;;;;12.50;92.73;102426.09;4953071;28;20031;-80
2023/10/04 02:42:09;;;;;;;6.68;1.48;;;;;;;12.48;92.57;102430.47;4945647;28;20020;-79
2023/10/04 02:44:35;;;;;;;6.70;2.03;;;;;;;12.49;92.50;102426.97;4956305;29;20394;-79
2023/10/04 02:47:06;;;;;;;5.82;1.60;;;;;;;12.51;92.78;102430.44;4955764;28;20114;-79
2023/10/04 02:49:32;;;;;;;12.70;2.25;;;;;;;12.50;92.73;102431.31;4951276;28;20027;-80
2023/10/04 02:51:58;;;;;;;9.55;1.90;;;;;;;12.49;92.72;102434.81;4948947;28;20124;-79
2023/10/04 02:54:23;;;;;;;9.48;1.65;;;;;;;12.52;92.69;102439.16;4949922;29;20487;-80
2023/10/04 02:56:50;;;;;;;7.10;1.40;;;;;;;12.51;92.51;102437.44;4950198;28;20026;-80
2023/10/04 02:59:16;;;;;;;11.18;2.03;;;;;;;12.50;92.68;102436.53;4950562;29;20030;-80
2023/10/04 03:01:42;;;;;;;6.25;1.40;;;;;;;12.50;92.81;102439.16;4949904;29;20447;-80
2023/10/04 03:04:11;;;;;;;9.60;1.80;;;;;;;12.50;92.86;102436.53;4951173;29;20109;-80
2023/10/04 03:06:37;;;;;;;6.47;1.70;;;;;;;12.49;92.88;102429.59;4945097;29;20067;-80
2023/10/04 03:09:05;;;;;;;7.63;1.42;;;;;;;12.50;92.71;102436.53;4953701;28;20026;-80
2023/10/04 03:11:31;;;;;;;6.60;1.50;;;;;;;12.48;92.65;102435.69;4939707;29;20043;-80
2023/10/04 03:13:59;;;;;;;7.72;2.10;;;;;;;12.46;92.77;102440.09;4951503;28;20090;-80
2023/10/04 03:16:24;;;;;;;6.78;1.63;;;;;;;12.44;92.80;102442.69;4946633;28;20031;-80
2023/10/04 03:18:49;;;;;;;7.15;1.52;;;;;;;12.43;93.25;102448.78;4951687;29;20554;-80
2023/10/04 03:21:20;;;;;;;3.70;1.30;;;;;;;12.42;92.64;102449.66;4939260;29;20031;-80
2023/10/04 03:23:45;;;;;;;9.18;1.60;;;;;;;12.39;92.75;102457.50;4952123;28;20081;-80
2023/10/04 03:26:14;;;;;;;7.05;1.60;;;;;;;12.38;92.89;102466.22;4943045;29;20164;-80
2023/10/04 03:28:40;;;;;;;8.73;1.52;;;;;;;12.37;92.98;102467.13;4949464;29;20015;-80
2023/10/04 03:31:14;;;;;;;7.10;1.20;;;;;;;12.36;92.92;102464.50;4954370;28;20025;-80
2023/10/04 03:33:40;;;;;;;8.68;1.33;;;;;;;12.33;93.14;102456.69;4951816;28;20110;-80
2023/10/04 03:36:06;;;;;;;6.18;1.98;;;;;;;12.30;93.04;102466.28;4943917;29;20039;-80
2023/10/04 03:38:33;;;;;;;9.85;1.70;;;;;;;12.28;92.99;102470.66;4949119;29;20368;-80
2023/10/04 03:40:59;;;;;;;8.38;1.45;;;;;;;12.27;93.15;102476.75;4952016;29;20492;-80
2023/10/04 03:43:24;;;;;;;7.07;1.77;;;;;;;12.25;93.05;102468.06;4953198;28;20027;-80
2023/10/04 03:45:50;;;;;;;6.95;1.50;;;;;;;12.22;93.39;102462.84;4945161;29;20030;-80
2023/10/04 03:48:15;;;;;;;6.15;1.50;;;;;;;12.21;93.15;102463.72;4952589;29;20407;-80
2023/10/04 03:50:48;;;;;;;7.32;1.50;;;;;;;12.17;93.22;102456.78;4954114;28;20348;-80
2023/10/04 03:53:15;;;;;;;5.47;1.40;;;;;;;12.14;93.29;102454.19;4947521;28;20383;-80
2023/10/04 03:55:42;;;;;;;4.97;1.50;;;;;;;12.12;93.48;102455.97;4945997;28;20480;-80
2023/10/04 03:58:09;;;;;;;6.20;1.63;;;;;;;12.09;93.47;102464.66;4949014;29;20023;-80
2023/10/04 04:00:36;;;;;;;7.20;1.80;;;;;;;12.07;93.61;102469.03;4946210;29;20036;-79
2023/10/04 04:03:03;;;;;;;6.78;1.95;;;;;;;12.05;93.47;102452.50;4951888;28;20034;-80
2023/10/04 04:05:30;;;;;;;7.20;1.75;;;;;;;12.03;93.81;102453.41;4947155;28;20031;-80
2023/10/04 04:07:55;;;;;;;4.00;1.35;;;;;;;11.98;93.60;102443.88;4943032;29;20023;-80
2023/10/04 04:10:22;;;;;;;4.93;1.38;;;;;;;11.97;93.40;102451.69;4950336;29;20386;-80
2023/10/04 04:12:47;;;;;;;5.15;1.73;;;;;;;11.94;94.01;102457.78;4953742;28;20035;-80
2023/10/04 04:15:14;;;;;;;5.22;1.20;;;;;;;11.94;93.97;102462.13;4950057;28;20035;-80
2023/10/04 04:17:41;;;;;;;6.57;1.55;;;;;;;11.91;94.08;102457.81;4950050;28;20101;-80
2023/10/04 04:20:17;;;;;;;4.57;1.35;;;;;;;11.90;93.95;102461.28;4954318;28;20027;-80
2023/10/04 04:22:50;;;;;;;4.13;1.40;;;;;;;11.88;94.18;102452.59;4950144;28;20094;-80
2023/10/04 04:25:18;;;;;;;4.88;1.50;;;;;;;11.84;94.09;102449.16;4942263;29;20031;-80
2023/10/04 04:27:44;;;;;;;8.70;1.50;;;;;;;11.83;94.13;102449.13;4935460;28;20380;-80
2023/10/04 04:30:16;;;;;;;4.85;1.48;;;;;;;11.80;94.46;102452.63;4937470;29;20026;-80
2023/10/04 04:32:49;;;;;;;6.03;1.80;;;;;;;11.80;94.44;102455.25;4953011;29;20032;-80
2023/10/04 04:35:23;;;;;;;6.85;1.70;;;;;;;11.80;94.41;102449.13;4947130;28;20523;-80
2023/10/04 04:37:54;;;;;;;7.07;1.63;;;;;;;11.78;94.28;102440.50;4938468;28;20043;-80
2023/10/04 04:40:24;;;;;;;6.97;1.73;;;;;;;11.77;94.29;102443.97;4941062;29;20368;-80
2023/10/04 04:42:49;;;;;;;3.47;1.48;;;;;;;11.76;94.42;102442.22;4952876;28;20479;-80
2023/10/04 04:45:16;;;;;;;5.07;1.80;;;;;;;11.74;94.78;102443.97;4949931;29;20023;-80
2023/10/04 04:47:44;;;;;;;7.15;1.90;;;;;;;11.72;94.63;102446.56;4940582;29;20094;-80
2023/10/04 04:50:09;;;;;;;5.38;1.50;;;;;;;11.71;94.94;102449.19;4948169;29;20483;-80
2023/10/04 04:52:35;;;;;;;5.10;1.52;;;;;;;11.69;95.22;102442.25;4944993;29;20051;-80
2023/10/04 04:55:01;;;;;;;5.40;1.95;;;;;;;11.68;94.99;102444.88;4951275;29;20364;-80
2023/10/04 04:57:27;;;;;;;5.72;1.73;;;;;;;11.67;95.19;102443.13;4946375;29;20031;-80
2023/10/04 04:59:55;;;;;;;5.53;1.48;;;;;;;11.65;94.96;102437.06;4945760;29;20113;-80
2023/10/04 05:02:21;;;;;;;5.97;1.80;;;;;;;11.62;95.09;102435.31;4948020;28;20387;-80
2023/10/04 05:04:47;;;;;;;6.82;1.50;;;;;;;11.58;94.95;102441.44;4946165;28;20031;-80
2023/10/04 05:07:13;;;;;;;5.13;1.60;;;;;;;11.57;95.43;102441.44;4946318;29;20027;-80
2023/10/04 05:09:38;;;;;;;5.50;1.60;;;;;;;11.54;95.47;102437.09;4950399;28;20037;-80
2023/10/04 05:12:04;;;;;;;5.75;1.60;;;;;;;11.51;95.46;102452.75;4951730;29;20023;-79
2023/10/04 05:14:29;;;;;;;5.80;1.63;;;;;;;11.50;95.53;102458.84;4937213;28;20031;-80
2023/10/04 05:16:55;;;;;;;5.97;1.60;;;;;;;11.47;95.88;102456.22;4939030;29;20042;-80
2023/10/04 05:19:20;;;;;;;6.75;1.77;;;;;;;11.47;95.79;102461.44;4965943;28;20079;-80
2023/10/04 05:21:45;;;;;;;4.85;1.60;;;;;;;11.45;95.63;102474.50;4951846;29;20027;-80
2023/10/04 05:24:10;;;;;;;5.18;1.58;;;;;;;11.43;96.18;102491.88;4951600;29;20065;-80
2023/10/04 05:26:37;;;;;;;8.80;1.60;;;;;;;11.43;95.78;102501.44;4953905;29;20110;-80
2023/10/04 05:29:03;;;;;;;8.88;2.10;;;;;;;11.43;95.70;102501.44;4950064;29;20024;-80
2023/10/04 05:31:28;;;;;;;4.47;1.70;;;;;;;11.42;95.78;102500.56;4944331;28;20020;-80
2023/10/04 05:33:53;;;;;;;7.40;1.77;;;;;;;11.41;95.79;102492.75;4945171;29;20039;-80
2023/10/04 05:36:18;;;;;;;6.50;1.90;;;;;;;11.39;95.84;102491.03;4946496;29;20083;-80
2023/10/04 05:38:44;;;;;;;4.35;1.67;;;;;;;11.38;95.98;102481.47;4948279;29;20094;-80
2023/10/04 05:41:09;;;;;;;5.25;1.60;;;;;;;11.37;95.76;102482.34;4943421;28;20046;-80
2023/10/04 05:43:35;;;;;;;6.03;1.65;;;;;;;11.36;96.01;102492.75;4951726;28;20031;-80
2023/10/04 05:46:00;;;;;;;7.72;1.45;;;;;;;11.34;96.11;102492.75;4948807;29;20495;-80
2023/10/04 05:48:26;;;;;;;4.97;1.60;;;;;;;11.34;95.71;102494.50;4949238;29;20051;-80
2023/10/04 05:50:54;;;;;;;6.05;1.70;;;;;;;11.34;96.06;102499.72;4951845;29;20542;-80
2023/10/04 05:53:20;;;;;;;6.00;1.70;;;;;;;11.32;96.01;102502.31;4948754;29;20035;-80
2023/10/04 05:55:46;;;;;;;8.35;1.75;;;;;;;11.31;96.02;102513.59;4944958;29;20094;-80
2023/10/04 05:58:11;;;;;;;5.95;1.50;;;;;;;11.30;96.46;102522.28;4955971;28;20038;-80
2023/10/04 06:00:52;;;;;;;6.25;1.70;;;;;;;11.30;96.11;102517.06;4947859;28;20031;-80
2023/10/04 06:03:18;;;;;;;6.30;1.50;;;;;;;11.30;96.14;102522.28;4946738;29;20035;-80
2023/10/04 06:05:44;;;;;;;7.57;1.98;;;;;;;11.29;96.01;102530.97;4955712;28;20110;-80
2023/10/04 06:08:15;;;;;;;8.60;1.77;;;;;;;11.30;96.24;102521.44;4943659;29;20115;-80
2023/10/04 06:10:42;;;;;;;6.43;1.83;;;;;;;11.30;96.01;102522.28;4949086;29;20031;-80
2023/10/04 06:13:11;;;;;;;6.57;1.63;;;;;;;11.30;96.34;102522.28;4956035;28;20039;-80
2023/10/04 06:15:39;;;;;;;5.70;1.50;;;;;;;11.30;96.24;102517.06;4946254;29;20468;-80
2023/10/04 06:18:07;;;;;;;5.60;1.60;;;;;;;11.30;96.11;102519.69;4953321;29;20027;-80
2023/10/04 06:23:05;;;;;;;7.30;2.00;;;;;;;11.32;96.26;102537.94;4955344;28;20059;-80
2023/10/04 06:25:32;;;;;;;5.95;2.08;;;;;;;11.31;96.39;102534.44;4948464;28;20463;-80
2023/10/04 06:27:59;;;;;;;6.35;1.75;;;;;;;11.34;96.47;102550.09;4942410;29;20476;-80
2023/10/04 06:30:28;;;;;;;6.22;1.90;;;;;;;11.35;96.54;102546.63;4950882;28;20043;-80
2023/10/04 06:32:55;;;;;;;5.00;1.58;;;;;;;11.37;96.22;102544.00;4944357;28;20023;-80
2023/10/04 06:35:24;;;;;;;8.30;1.73;;;;;;;11.38;96.28;102548.34;4953371;28;20130;-80
2023/10/04 06:37:55;;;;;;;5.68;1.75;;;;;;;11.41;96.44;102545.72;4943946;29;20042;-80
2023/10/04 06:40:22;;;;;;;5.00;1.60;;;;;;;11.43;96.15;102553.56;4944764;29;20034;-80
2023/10/04 06:42:49;;;;;;;8.38;1.70;;;;;;;11.45;96.54;102551.78;4949620;28;20032;-80
2023/10/04 06:45:16;;;;;;;6.75;2.08;;;;;;;11.48;96.39;102550.06;4952257;29;20023;-80
2023/10/04 06:47:44;;;;;;;7.40;1.90;;;;;;;11.49;96.22;102553.53;4941483;28;20596;-82
2023/10/04 06:50:13;;;;;;;8.13;2.00;;;;;;;11.52;96.45;102545.72;4947655;28;20082;-81
2023/10/04 06:52:39;;;;;;;9.38;2.20;;;;;;;11.55;96.42;102553.53;4951172;29;20038;-80
2023/10/04 06:55:07;;;;;;;6.32;1.90;;;;;;;11.58;96.22;102553.53;4952729;28;20019;-80
2023/10/04 06:57:33;;;;;;;9.63;1.98;;;;;;;11.61;96.24;102555.25;4965208;28;20112;-80
2023/10/04 06:59:59;;;;;;;5.70;1.80;;;;;;;11.62;96.40;102557.84;4947152;29;20416;-80
2023/10/04 07:02:24;;;;;;;6.03;1.63;;;;;;;11.64;96.08;102552.63;4951711;28;20019;-80
2023/10/04 07:04:49;;;;;;;7.68;1.90;;;;;;;11.66;95.98;102551.75;4946703;29;20034;-80
2023/10/04 07:07:15;;;;;;;6.10;1.90;;;;;;;11.68;95.94;102550.00;4946416;28;20035;-80
2023/10/04 07:09:40;;;;;;;6.60;1.80;;;;;;;11.71;96.02;102558.69;4945422;29;20039;-80
2023/10/04 07:12:05;;;;;;;7.32;1.58;;;;;;;11.73;96.17;102563.03;4949151;29;20115;-80
2023/10/04 07:14:31;;;;;;;6.53;1.80;;;;;;;11.77;96.30;102563.91;4946128;28;20032;-80
2023/10/04 07:16:57;;;;;;;5.97;1.83;;;;;;;11.83;95.89;102561.25;4944367;29;20390;-80
2023/10/04 07:19:22;;;;;;;11.98;2.70;;;;;;;11.89;96.33;102562.97;4941909;29;20032;-80
2023/10/04 07:21:49;;;;;;;6.82;2.00;;;;;;;11.94;95.79;102571.66;4946838;28;20031;-80
2023/10/04 07:24:14;;;;;;;5.53;1.83;;;;;;;11.99;95.98;102569.94;4949599;28;20039;-80
2023/10/04 07:26:39;;;;;;;7.43;2.17;;;;;;;12.05;95.99;102563.84;4951496;28;20034;-79
2023/10/04 07:29:05;;;;;;;7.93;1.90;;;;;;;12.09;95.87;102560.34;4954748;29;20023;-80
2023/10/04 07:31:34;;;;;;;7.20;2.22;;;;;;;12.13;95.62;102568.16;4949370;29;20789;-80
2023/10/04 07:34:00;;;;;;;7.70;1.95;;;;;;;12.19;95.79;102572.47;4946947;29;20032;-80
2023/10/04 07:36:25;;;;;;;5.10;2.05;;;;;;;12.23;95.49;102568.97;4942183;29;20055;-80
2023/10/04 07:38:50;;;;;;;9.45;2.20;;;;;;;12.27;95.70;102575.91;4940519;28;20462;-80
2023/10/04 07:41:16;;;;;;;9.13;2.35;;;;;;;12.32;95.68;102577.59;4950590;28;20386;-80
2023/10/04 07:43:41;;;;;;;5.95;1.90;;;;;;;12.35;95.41;102575.00;4949891;28;20035;-80
2023/10/04 07:46:06;;;;;;;7.43;1.92;;;;;;;12.38;95.08;102578.44;4946502;29;20130;-80
2023/10/04 07:48:32;;;;;;;6.75;1.80;;;;;;;12.42;95.66;102579.31;4948233;29;20034;-80
2023/10/04 07:50:57;;;;;;;6.68;1.92;;;;;;;12.46;95.45;102583.66;4947494;28;20039;-80
2023/10/04 07:53:22;;;;;;;11.23;2.20;;;;;;;12.52;95.33;102588.81;4947329;29;20050;-80
2023/10/04 07:55:49;;;;;;;6.85;2.47;;;;;;;12.57;94.70;102584.44;4951065;29;20390;-80
2023/10/04 07:58:14;;;;;;;9.65;2.60;;;;;;;12.63;94.68;102585.28;4947337;28;20039;-79
2023/10/04 08:00:41;;;;;;;12.35;2.38;;;;;;;12.67;94.69;102595.69;4947253;28;20031;-80
2023/10/04 08:03:07;;;;;;;6.95;2.20;;;;;;;12.76;94.34;102605.22;4948436;28;20023;-80
2023/10/04 08:05:33;;;;;;;8.55;1.85;;;;;;;12.83;94.58;102612.13;4945304;28;20039;-79
2023/10/04 08:08:00;;;;;;;7.07;2.10;;;;;;;12.90;95.65;102607.72;4950296;28;20038;-82
2023/10/04 08:10:29;;;;;;;6.85;1.92;;;;;;;12.95;94.03;102607.72;4952710;28;20027;-80
2023/10/04 08:12:59;;;;;;;10.35;1.98;;;;;;;13.01;93.86;102607.66;4949667;29;20031;-80
2023/10/04 08:15:26;;;;;;;6.75;2.17;;;;;;;13.04;94.49;102603.28;4947246;28;20031;-79
2023/10/04 08:17:53;;;;;;;8.63;2.03;;;;;;;13.10;94.00;102599.75;4948389;28;20054;-82
2023/10/04 08:20:24;;;;;;;7.40;2.10;;;;;;;13.12;94.26;102598.00;4947081;28;20082;-81
2023/10/04 08:22:49;;;;;;;7.05;1.75;;;;;;;13.16;94.11;102599.69;4943384;28;20588;-83
2023/10/04 08:25:16;;;;;;;7.03;1.88;;;;;;;13.20;93.24;102606.63;4949560;28;20118;-82
2023/10/04 08:27:42;;;;;;;8.68;2.30;;;;;;;13.22;92.85;102604.00;4943294;29;20479;-80
2023/10/04 08:30:11;;;;;;;6.95;1.80;;;;;;;13.23;92.79;102597.91;4944533;28;20027;-80
2023/10/04 08:32:37;;;;;;;7.32;2.30;;;;;;;13.26;93.58;102612.69;4946356;29;20027;-81
2023/10/04 08:35:03;;;;;;;8.48;2.20;;;;;;;13.30;93.00;102611.78;4950108;28;20046;-81
2023/10/04 08:37:29;;;;;;;6.13;2.13;;;;;;;13.31;93.07;102603.06;4943284;29;20419;-81
2023/10/04 08:39:54;;;;;;;5.63;1.92;;;;;;;13.34;93.21;102613.47;4948660;28;20090;-81
2023/10/04 08:42:20;;;;;;;7.15;2.30;;;;;;;13.35;93.06;102613.47;4949496;28;20494;-81
2023/10/04 08:44:46;;;;;;;8.63;2.22;;;;;;;13.41;92.87;102614.34;4945167;29;20155;-81
2023/10/04 08:47:12;;;;;;;10.25;2.42;;;;;;;13.44;92.30;102614.28;4945866;28;20118;-81
2023/10/04 08:49:46;;;;;;;5.85;2.10;;;;;;;13.45;92.03;102616.91;4947075;29;20134;-81
2023/10/04 08:52:20;;;;;;;8.77;1.80;;;;;;;13.47;92.16;102615.16;4948095;28;20114;-81
2023/10/04 08:54:56;;;;;;;6.25;2.05;;;;;;;13.50;92.34;102615.09;4948558;28;20502;-81
2023/10/04 08:57:22;;;;;;;8.35;1.98;;;;;;;13.51;92.60;102616.84;4947248;28;20451;-81
2023/10/04 08:59:51;;;;;;;7.45;1.83;;;;;;;13.56;91.98;102618.53;4949064;28;20023;-80
2023/10/04 09:02:18;;;;;;;6.35;1.83;;;;;;;13.57;91.76;102617.66;4946524;28;20110;-82
2023/10/04 09:04:44;;;;;;;6.43;2.38;;;;;;;13.60;91.84;102620.25;4947433;28;20101;-80
2023/10/04 09:07:10;;;;;;;9.77;2.22;;;;;;;13.66;92.12;102622.81;4946546;28;20031;-81
2023/10/04 09:09:39;;;;;;;5.90;1.98;;;;;;;13.69;91.30;102617.53;4944171;29;20038;-81
2023/10/04 09:12:08;;;;;;;7.28;2.15;;;;;;;13.74;91.12;102623.59;4948490;28;20027;-81
2023/10/04 09:14:36;;;;;;;8.57;2.58;;;;;;;13.78;91.14;102622.69;4945713;28;20019;-81
2023/10/04 09:17:07;;;;;;;6.82;2.10;;;;;;;13.81;91.38;102619.16;4946561;29;20538;-81
2023/10/04 09:19:33;;;;;;;8.45;2.20;;;;;;;13.84;90.60;102619.13;4946175;28;20035;-80
2023/10/04 09:22:06;;;;;;;5.30;1.90;;;;;;;13.89;90.88;102621.69;4946669;29;20507;-80
2023/10/04 09:24:35;;;;;;;6.70;2.20;;;;;;;13.93;92.05;102619.03;4943549;29;20506;-82
2023/10/04 09:27:01;;;;;;;6.65;1.83;;;;;;;13.99;91.05;102617.22;4941216;28;20023;-81
2023/10/04 09:29:36;;;;;;;7.78;2.33;;;;;;;14.01;90.83;102608.47;4945085;29;20011;-80
2023/10/04 09:32:03;;;;;;;7.45;2.22;;;;;;;14.03;90.34;102609.31;4937634;29;20031;-81
2023/10/04 09:34:30;;;;;;;6.53;2.20;;;;;;;14.07;90.75;102610.16;4942996;29;20031;-81
2023/10/04 09:36:56;;;;;;;11.38;2.22;;;;;;;14.10;90.22;102604.88;4942239;28;20098;-82
2023/10/04 09:39:27;;;;;;;8.45;2.05;;;;;;;14.14;91.13;102609.19;4945466;28;20102;-81
2023/10/04 09:41:54;;;;;;;;;;;;;;;14.21;90.70;102604.75;4947664;29;20031;-82
2023/10/04 09:44:30;;;;;;;10.10;2.10;;;;;;;14.23;89.93;102600.34;4943257;29;20034;-82
2023/10/04 09:47:00;;;;;;;6.95;1.88;;;;;;;14.27;90.28;102608.13;4944837;29;20031;-81
2023/10/04 09:49:32;;;;;;;8.90;2.22;;;;;;;14.32;90.23;102609.84;4948065;29;20483;-81
2023/10/04 09:52:05;;;;;;;8.52;2.15;;;;;;;14.34;90.11;102611.56;4950317;28;20027;-81
2023/10/04 09:54:31;;;;;;;6.68;1.95;;;;;;;14.37;89.70;102614.13;4945694;28;20111;-86
2023/10/04 09:56:57;;;;;;;7.95;2.30;;;;;;;14.41;89.24;102614.97;4946280;29;20051;-81
2023/10/04 09:59:23;;;;;;;7.00;1.98;;;;;;;14.47;89.55;102624.50;4950232;29;20035;-82
2023/10/04 10:01:56;;;;;;;9.90;2.00;;;;;;;14.54;88.86;102618.25;4944021;28;20041;-81
2023/10/04 10:04:27;;;;;;;8.23;2.10;;;;;;;14.59;87.60;102613.84;4942636;28;20086;-81
2023/10/04 10:07:15;;;;;;;8.68;2.20;;;;;;;14.61;87.25;102612.06;4948839;28;20119;-81
2023/10/04 10:09:53;;;;;;;5.63;2.20;;;;;;;14.64;87.15;102616.38;4942207;29;20131;-80
2023/10/04 10:12:20;;;;;;;15.27;2.58;;;;;;;14.65;86.17;102624.25;4946655;28;20554;-80
2023/10/04 10:14:48;;;;;;;12.02;2.22;;;;;;;14.69;86.68;102630.31;4945669;28;20023;-81
2023/10/04 10:17:13;;;;;;;10.73;2.20;;;;;;;14.72;86.30;102630.28;4943785;29;20479;-81
2023/10/04 10:19:38;;;;;;;11.18;2.70;;;;;;;14.78;86.57;102634.56;4941616;29;20055;-81
2023/10/04 10:22:25;;;;;;;8.05;2.22;;;;;;;14.79;86.00;102634.53;4943577;29;20053;-81
2023/10/04 10:24:56;;;;;;;9.90;2.50;;;;;;;14.80;84.49;102628.41;4943307;29;20023;-82
2023/10/04 10:27:27;;;;;;;7.05;2.00;;;;;;;14.80;84.73;102632.78;4949567;28;20024;-82
2023/10/04 10:29:52;;;;;;;7.13;2.03;;;;;;;14.85;85.74;102623.13;4949598;28;20030;-81
2023/10/04 10:32:22;;;;;;;7.32;2.00;;;;;;;14.87;85.26;102618.69;4948763;28;20027;-82
2023/10/04 10:34:57;;;;;;;6.55;2.00;;;;;;;14.91;85.65;102615.16;4949572;29;20159;-81
2023/10/04 10:37:24;;;;;;;7.90;2.22;;;;;;;14.94;84.58;102614.25;4944184;28;20146;-81
2023/10/04 10:39:52;;;;;;;8.65;2.45;;;;;;;14.96;83.80;102617.69;4950279;28;20035;-81
2023/10/04 10:42:18;;;;;;;7.55;1.95;;;;;;;14.97;84.79;102614.19;4951021;28;20023;-82
2023/10/04 10:44:44;;;;;;;6.22;2.00;;;;;;;14.98;83.46;102618.53;4948337;28;20070;-82
2023/10/04 10:47:14;;;;;;;9.75;2.40;;;;;;;14.99;82.70;102615.91;4951738;28;20035;-81
2023/10/04 10:49:50;;;;;;;9.68;2.00;;;;;;;15.01;82.24;102622.00;4948110;29;20023;-81
2023/10/04 10:52:39;;;;;;;8.20;2.08;;;;;;;15.06;83.26;102613.16;4946609;28;20054;-81
2023/10/04 10:55:14;;;;;;;7.85;2.30;;;;;;;15.12;82.07;102618.31;4946948;29;20479;-81
2023/10/04 10:57:42;;;;;;;9.05;2.22;;;;;;;15.20;81.75;102610.31;4949107;29;20159;-81
2023/10/04 11:00:22;;;;;;;9.02;2.17;;;;;;;15.25;80.98;102606.72;4946917;29;20065;-81
2023/10/04 11:02:51;;;;;;;7.15;2.20;;;;;;;15.31;80.74;102604.00;4947917;29;20070;-81
2023/10/04 11:05:16;;;;;;;8.20;2.30;;;;;;;15.36;79.58;102605.69;4948506;29;20055;-81
2023/10/04 11:07:45;;;;;;;7.45;2.00;;;;;;;15.39;79.71;102605.63;4948887;28;20495;-81
2023/10/04 11:10:15;;;;;;;7.10;2.13;;;;;;;15.40;78.25;102604.72;4949576;29;20062;-80
2023/10/04 11:12:42;;;;;;;6.77;2.20;;;;;;;15.42;78.79;102603.81;4948900;28;20046;-81
2023/10/04 11:15:08;;;;;;;6.53;2.08;;;;;;;15.47;79.28;102598.50;4947184;29;20035;-80
2023/10/04 11:17:36;;;;;;;8.48;2.30;;;;;;;15.51;79.66;102594.03;4947509;29;20069;-81
2023/10/04 11:20:20;;;;;;;8.07;2.10;;;;;;;15.55;80.35;102593.09;4948293;29;20042;-81
2023/10/04 11:22:48;;;;;;;8.55;2.15;;;;;;;15.56;79.10;102587.81;4942721;29;20032;-81
2023/10/04 11:25:15;;;;;;;6.65;2.20;;;;;;;15.55;78.63;102586.09;4947136;28;20111;-81
2023/10/04 11:27:43;;;;;;;8.57;2.33;;;;;;;15.58;78.70;102579.94;4963531;28;20122;-81